sensor_id;sensor_type;location;lat;lon;timestamp;temperature;humidity
16174;DHT22;14031;50.158;8.626;2023-11-21T00:02:07;11.00;99.90
16174;DHT22;14031;50.158;8.626;2023-11-21T00:04:35;11.20;99.90
16174;DHT22;14031;50.158;8.626;2023-11-21T00:07:01;11.10;99.90
16174;DHT22;14031;50.158;8.626;2023-11-21T00:09:28;11.10;99.90
16174;DHT22;14031;50.158;8.626;2023-11-21T00:11:55;11.10;99.90
16174;DHT22;14031;50.158;8.626;2023-11-21T00:14:22;11.10;99.90
16174;DHT22;14031;50.158;8.626;2023-11-21T00:16:48;11.10;99.90
16174;DHT22;14031;50.158;8.626;2023-11-21T00:19:15;11.10;99.90
16174;DHT22;14031;50.158;8.626;2023-11-21T00:21:43;11.10;99.90
16174;DHT22;14031;50.158;8.626;2023-11-21T00:24:11;11.10;99.90
16174;DHT22;14031;50.158;8.626;2023-11-21T00:26:39;11.10;99.90
16174;DHT22;14031;50.158;8.626;2023-11-21T00:29:05;11.10;99.90
16174;DHT22;14031;50.158;8.626;2023-11-21T00:31:33;11.10;99.90
16174;DHT22;14031;50.158;8.626;2023-11-21T00:34:02;11.10;99.90
16174;DHT22;14031;50.158;8.626;2023-11-21T00:36:29;11.10;99.90
16174;DHT22;14031;50.158;8.626;2023-11-21T00:38:57;11.10;99.90
16174;DHT22;14031;50.158;8.626;2023-11-21T00:41:24;11.10;99.90
16174;DHT22;14031;50.158;8.626;2023-11-21T00:43:53;11.10;99.90
16174;DHT22;14031;50.158;8.626;2023-11-21T00:46:20;11.10;99.90
16174;DHT22;14031;50.158;8.626;2023-11-21T00:48:47;11.10;99.90
16174;DHT22;14031;50.158;8.626;2023-11-21T00:51:14;11.10;99.90
16174;DHT22;14031;50.158;8.626;2023-11-21T00:53:41;11.10;99.90
16174;DHT22;14031;50.158;8.626;2023-11-21T00:56:09;11.10;99.90
16174;DHT22;14031;50.158;8.626;2023-11-21T00:58:35;11.10;99.90
16174;DHT22;14031;50.158;8.626;2023-11-21T01:01:02;11.10;99.90
16174;DHT22;14031;50.158;8.626;2023-11-21T01:03:29;11.10;99.90
16174;DHT22;14031;50.158;8.626;2023-11-21T01:05:56;11.20;99.90
16174;DHT22;14031;50.158;8.626;2023-11-21T01:08:22;11.10;99.90
16174;DHT22;14031;50.158;8.626;2023-11-21T01:10:50;11.10;99.90
16174;DHT22;14031;50.158;8.626;2023-11-21T01:13:18;11.30;99.90
16174;DHT22;14031;50.158;8.626;2023-11-21T01:15:45;11.10;99.90
16174;DHT22;14031;50.158;8.626;2023-11-21T01:18:11;11.10;99.90
16174;DHT22;14031;50.158;8.626;2023-11-21T01:20:38;11.10;99.90
16174;DHT22;14031;50.158;8.626;2023-11-21T01:23:05;11.10;99.90
16174;DHT22;14031;50.158;8.626;2023-11-21T01:25:32;11.10;99.90
16174;DHT22;14031;50.158;8.626;2023-11-21T01:27:59;11.10;99.90
16174;DHT22;14031;50.158;8.626;2023-11-21T01:30:27;11.10;99.90
16174;DHT22;14031;50.158;8.626;2023-11-21T01:32:53;11.00;99.90
16174;DHT22;14031;50.158;8.626;2023-11-21T01:35:20;11.10;99.90
16174;DHT22;14031;50.158;8.626;2023-11-21T01:37:47;11.10;99.90
16174;DHT22;14031;50.158;8.626;2023-11-21T01:40:14;11.10;99.90
16174;DHT22;14031;50.158;8.626;2023-11-21T01:42:41;11.10;99.90
16174;DHT22;14031;50.158;8.626;2023-11-21T01:45:09;11.10;99.90
16174;DHT22;14031;50.158;8.626;2023-11-21T01:47:40;11.10;99.90
16174;DHT22;14031;50.158;8.626;2023-11-21T01:50:09;11.10;99.90
16174;DHT22;14031;50.158;8.626;2023-11-21T01:52:38;11.10;99.90
16174;DHT22;14031;50.158;8.626;2023-11-21T01:55:07;11.10;99.90
16174;DHT22;14031;50.158;8.626;2023-11-21T01:57:35;11.10;99.90
16174;DHT22;14031;50.158;8.626;2023-11-21T02:00:04;11.10;99.90
16174;DHT22;14031;50.158;8.626;2023-11-21T02:02:42;11.10;99.90
16174;DHT22;14031;50.158;8.626;2023-11-21T02:05:09;11.10;99.90
16174;DHT22;14031;50.158;8.626;2023-11-21T02:07:38;11.10;99.90
16174;DHT22;14031;50.158;8.626;2023-11-21T02:10:06;11.10;99.90
16174;DHT22;14031;50.158;8.626;2023-11-21T02:12:32;11.10;99.90
16174;DHT22;14031;50.158;8.626;2023-11-21T02:15:00;11.00;99.90
16174;DHT22;14031;50.158;8.626;2023-11-21T02:17:27;11.10;99.90
16174;DHT22;14031;50.158;8.626;2023-11-21T02:19:55;11.10;99.90
16174;DHT22;14031;50.158;8.626;2023-11-21T02:22:22;11.10;99.90
16174;DHT22;14031;50.158;8.626;2023-11-21T02:24:53;11.10;99.90
16174;DHT22;14031;50.158;8.626;2023-11-21T02:27:20;11.10;99.90
16174;DHT22;14031;50.158;8.626;2023-11-21T02:29:49;11.10;99.90
16174;DHT22;14031;50.158;8.626;2023-11-21T02:32:15;11.10;99.90
16174;DHT22;14031;50.158;8.626;2023-11-21T02:34:45;11.10;99.90
16174;DHT22;14031;50.158;8.626;2023-11-21T02:37:11;11.00;99.90
16174;DHT22;14031;50.158;8.626;2023-11-21T02:39:38;11.00;99.90
16174;DHT22;14031;50.158;8.626;2023-11-21T02:42:07;11.10;99.90
16174;DHT22;14031;50.158;8.626;2023-11-21T02:44:33;11.00;99.90
16174;DHT22;14031;50.158;8.626;2023-11-21T02:47:01;11.10;99.90
16174;DHT22;14031;50.158;8.626;2023-11-21T02:49:28;11.10;99.90
16174;DHT22;14031;50.158;8.626;2023-11-21T02:51:55;11.00;99.90
16174;DHT22;14031;50.158;8.626;2023-11-21T02:54:21;11.10;99.90
16174;DHT22;14031;50.158;8.626;2023-11-21T02:56:48;11.00;99.90
16174;DHT22;14031;50.158;8.626;2023-11-21T02:59:17;11.10;99.90
16174;DHT22;14031;50.158;8.626;2023-11-21T03:01:44;11.10;99.90
16174;DHT22;14031;50.158;8.626;2023-11-21T03:04:11;11.00;99.90
16174;DHT22;14031;50.158;8.626;2023-11-21T03:06:43;10.90;99.90
16174;DHT22;14031;50.158;8.626;2023-11-21T03:09:10;10.90;99.90
16174;DHT22;14031;50.158;8.626;2023-11-21T03:11:38;10.90;99.90
16174;DHT22;14031;50.158;8.626;2023-11-21T03:14:05;11.00;99.90
16174;DHT22;14031;50.158;8.626;2023-11-21T03:16:33;11.20;99.90
16174;DHT22;14031;50.158;8.626;2023-11-21T03:19:00;11.00;99.90
16174;DHT22;14031;50.158;8.626;2023-11-21T03:21:27;11.00;99.90
16174;DHT22;14031;50.158;8.626;2023-11-21T03:23:54;11.00;99.90
16174;DHT22;14031;50.158;8.626;2023-11-21T03:26:21;11.00;99.90
16174;DHT22;14031;50.158;8.626;2023-11-21T03:28:48;11.00;99.90
16174;DHT22;14031;50.158;8.626;2023-11-21T03:31:15;11.00;99.90
16174;DHT22;14031;50.158;8.626;2023-11-21T03:33:45;10.90;99.90
16174;DHT22;14031;50.158;8.626;2023-11-21T03:36:12;11.00;99.90
16174;DHT22;14031;50.158;8.626;2023-11-21T03:38:40;10.90;99.90
16174;DHT22;14031;50.158;8.626;2023-11-21T03:41:07;11.00;99.90
16174;DHT22;14031;50.158;8.626;2023-11-21T03:43:35;10.90;99.90
16174;DHT22;14031;50.158;8.626;2023-11-21T03:46:02;10.90;99.90
16174;DHT22;14031;50.158;8.626;2023-11-21T03:48:29;10.90;99.90
16174;DHT22;14031;50.158;8.626;2023-11-21T03:50:57;10.90;99.90
16174;DHT22;14031;50.158;8.626;2023-11-21T03:53:24;10.90;99.90
16174;DHT22;14031;50.158;8.626;2023-11-21T03:55:50;10.80;99.90
16174;DHT22;14031;50.158;8.626;2023-11-21T03:58:17;10.80;99.90
16174;DHT22;14031;50.158;8.626;2023-11-21T04:00:44;10.80;99.90
16174;DHT22;14031;50.158;8.626;2023-11-21T04:03:11;10.80;99.90
16174;DHT22;14031;50.158;8.626;2023-11-21T04:05:39;10.80;99.90
16174;DHT22;14031;50.158;8.626;2023-11-21T04:08:07;10.90;99.90
16174;DHT22;14031;50.158;8.626;2023-11-21T04:10:34;10.90;99.90
16174;DHT22;14031;50.158;8.626;2023-11-21T04:13:01;10.90;99.90
16174;DHT22;14031;50.158;8.626;2023-11-21T04:15:27;10.90;99.90
16174;DHT22;14031;50.158;8.626;2023-11-21T04:17:54;10.80;99.90
16174;DHT22;14031;50.158;8.626;2023-11-21T04:20:22;10.90;99.90
16174;DHT22;14031;50.158;8.626;2023-11-21T04:22:49;10.80;99.90
16174;DHT22;14031;50.158;8.626;2023-11-21T04:25:17;10.90;99.90
16174;DHT22;14031;50.158;8.626;2023-11-21T04:27:45;10.90;99.90
16174;DHT22;14031;50.158;8.626;2023-11-21T04:30:13;10.90;99.90
16174;DHT22;14031;50.158;8.626;2023-11-21T04:32:40;10.90;99.90
16174;DHT22;14031;50.158;8.626;2023-11-21T04:35:08;10.90;99.90
16174;DHT22;14031;50.158;8.626;2023-11-21T04:37:35;10.90;99.90
16174;DHT22;14031;50.158;8.626;2023-11-21T04:40:02;10.80;99.90
16174;DHT22;14031;50.158;8.626;2023-11-21T04:42:34;10.90;99.90
16174;DHT22;14031;50.158;8.626;2023-11-21T04:45:00;10.90;99.90
16174;DHT22;14031;50.158;8.626;2023-11-21T04:47:30;10.90;99.90
16174;DHT22;14031;50.158;8.626;2023-11-21T04:49:57;10.80;99.90
16174;DHT22;14031;50.158;8.626;2023-11-21T04:52:24;10.80;99.90
16174;DHT22;14031;50.158;8.626;2023-11-21T04:54:50;10.80;99.90
16174;DHT22;14031;50.158;8.626;2023-11-21T04:57:19;10.90;99.90
16174;DHT22;14031;50.158;8.626;2023-11-21T04:59:48;10.80;99.90
16174;DHT22;14031;50.158;8.626;2023-11-21T05:02:15;10.80;99.90
16174;DHT22;14031;50.158;8.626;2023-11-21T05:04:44;10.80;99.90
16174;DHT22;14031;50.158;8.626;2023-11-21T05:07:11;10.80;99.90
16174;DHT22;14031;50.158;8.626;2023-11-21T05:09:41;10.80;99.90
16174;DHT22;14031;50.158;8.626;2023-11-21T05:12:09;10.80;99.90
16174;DHT22;14031;50.158;8.626;2023-11-21T05:14:36;10.70;99.90
16174;DHT22;14031;50.158;8.626;2023-11-21T05:17:04;10.80;99.90
16174;DHT22;14031;50.158;8.626;2023-11-21T05:19:33;10.70;99.90
16174;DHT22;14031;50.158;8.626;2023-11-21T05:22:01;10.70;99.90
16174;DHT22;14031;50.158;8.626;2023-11-21T05:24:28;10.70;99.90
16174;DHT22;14031;50.158;8.626;2023-11-21T05:26:54;10.70;99.90
16174;DHT22;14031;50.158;8.626;2023-11-21T05:29:22;10.70;99.90
16174;DHT22;14031;50.158;8.626;2023-11-21T05:31:49;10.70;99.90
16174;DHT22;14031;50.158;8.626;2023-11-21T05:34:17;10.70;99.90
16174;DHT22;14031;50.158;8.626;2023-11-21T05:36:44;10.80;99.90
16174;DHT22;14031;50.158;8.626;2023-11-21T05:39:11;10.70;99.90
16174;DHT22;14031;50.158;8.626;2023-11-21T05:41:37;10.70;99.90
16174;DHT22;14031;50.158;8.626;2023-11-21T05:44:04;10.60;99.90
16174;DHT22;14031;50.158;8.626;2023-11-21T05:46:31;10.60;99.90
16174;DHT22;14031;50.158;8.626;2023-11-21T05:48:58;10.60;99.90
16174;DHT22;14031;50.158;8.626;2023-11-21T05:51:26;10.60;99.90
16174;DHT22;14031;50.158;8.626;2023-11-21T05:53:53;10.60;99.90
16174;DHT22;14031;50.158;8.626;2023-11-21T05:56:20;10.50;99.90
16174;DHT22;14031;50.158;8.626;2023-11-21T05:58:47;10.60;99.90
16174;DHT22;14031;50.158;8.626;2023-11-21T06:01:14;10.70;99.90
16174;DHT22;14031;50.158;8.626;2023-11-21T06:03:40;10.50;99.90
16174;DHT22;14031;50.158;8.626;2023-11-21T06:06:08;10.60;99.90
16174;DHT22;14031;50.158;8.626;2023-11-21T06:08:36;10.50;99.90
16174;DHT22;14031;50.158;8.626;2023-11-21T06:11:03;10.50;99.90
16174;DHT22;14031;50.158;8.626;2023-11-21T06:13:29;10.50;99.90
16174;DHT22;14031;50.158;8.626;2023-11-21T06:15:56;10.50;99.90
16174;DHT22;14031;50.158;8.626;2023-11-21T06:18:23;10.50;99.90
16174;DHT22;14031;50.158;8.626;2023-11-21T06:20:50;10.50;99.90
16174;DHT22;14031;50.158;8.626;2023-11-21T06:23:18;10.50;99.90
16174;DHT22;14031;50.158;8.626;2023-11-21T06:25:46;10.50;99.90
16174;DHT22;14031;50.158;8.626;2023-11-21T06:28:14;10.50;99.90
16174;DHT22;14031;50.158;8.626;2023-11-21T06:30:43;10.60;99.90
16174;DHT22;14031;50.158;8.626;2023-11-21T06:33:10;10.80;99.90
16174;DHT22;14031;50.158;8.626;2023-11-21T06:35:37;10.70;99.90
16174;DHT22;14031;50.158;8.626;2023-11-21T06:38:04;10.60;99.90
16174;DHT22;14031;50.158;8.626;2023-11-21T06:40:30;10.60;99.90
16174;DHT22;14031;50.158;8.626;2023-11-21T06:43:00;10.60;99.90
16174;DHT22;14031;50.158;8.626;2023-11-21T06:45:27;10.70;99.90
16174;DHT22;14031;50.158;8.626;2023-11-21T06:47:54;10.70;99.90
16174;DHT22;14031;50.158;8.626;2023-11-21T06:50:20;10.60;99.90
16174;DHT22;14031;50.158;8.626;2023-11-21T06:52:47;10.70;99.90
16174;DHT22;14031;50.158;8.626;2023-11-21T06:55:15;10.70;99.90
16174;DHT22;14031;50.158;8.626;2023-11-21T06:57:42;10.70;99.90
16174;DHT22;14031;50.158;8.626;2023-11-21T07:00:12;10.70;99.90
16174;DHT22;14031;50.158;8.626;2023-11-21T07:02:40;10.70;99.90
16174;DHT22;14031;50.158;8.626;2023-11-21T07:05:07;10.70;99.90
16174;DHT22;14031;50.158;8.626;2023-11-21T07:07:34;10.80;99.90
16174;DHT22;14031;50.158;8.626;2023-11-21T07:10:03;10.80;99.90
16174;DHT22;14031;50.158;8.626;2023-11-21T07:12:31;10.80;99.90
16174;DHT22;14031;50.158;8.626;2023-11-21T07:14:57;10.70;99.90
16174;DHT22;14031;50.158;8.626;2023-11-21T07:17:26;10.70;99.90
16174;DHT22;14031;50.158;8.626;2023-11-21T07:19:52;10.70;99.90
16174;DHT22;14031;50.158;8.626;2023-11-21T07:22:20;10.70;99.90
16174;DHT22;14031;50.158;8.626;2023-11-21T07:24:48;10.70;99.90
16174;DHT22;14031;50.158;8.626;2023-11-21T07:27:16;10.60;99.90
16174;DHT22;14031;50.158;8.626;2023-11-21T07:29:43;10.60;99.90
16174;DHT22;14031;50.158;8.626;2023-11-21T07:32:10;10.60;99.90
16174;DHT22;14031;50.158;8.626;2023-11-21T07:34:39;10.70;99.90
16174;DHT22;14031;50.158;8.626;2023-11-21T07:37:06;10.70;99.90
16174;DHT22;14031;50.158;8.626;2023-11-21T07:39:34;10.70;99.90
16174;DHT22;14031;50.158;8.626;2023-11-21T07:42:01;10.90;99.90
16174;DHT22;14031;50.158;8.626;2023-11-21T07:44:29;10.80;99.90
16174;DHT22;14031;50.158;8.626;2023-11-21T07:46:56;10.80;99.90
16174;DHT22;14031;50.158;8.626;2023-11-21T07:49:23;10.80;99.90
16174;DHT22;14031;50.158;8.626;2023-11-21T07:51:51;10.90;99.90
16174;DHT22;14031;50.158;8.626;2023-11-21T07:54:18;10.90;99.90
16174;DHT22;14031;50.158;8.626;2023-11-21T07:56:46;10.90;99.90
16174;DHT22;14031;50.158;8.626;2023-11-21T07:59:13;10.90;99.90
16174;DHT22;14031;50.158;8.626;2023-11-21T08:01:40;10.90;99.90
16174;DHT22;14031;50.158;8.626;2023-11-21T08:04:08;10.90;99.90
16174;DHT22;14031;50.158;8.626;2023-11-21T08:06:35;11.00;99.90
16174;DHT22;14031;50.158;8.626;2023-11-21T08:09:03;11.00;99.90
16174;DHT22;14031;50.158;8.626;2023-11-21T08:11:30;11.00;99.90
16174;DHT22;14031;50.158;8.626;2023-11-21T08:13:58;11.00;99.90
16174;DHT22;14031;50.158;8.626;2023-11-21T08:16:25;11.00;99.90
16174;DHT22;14031;50.158;8.626;2023-11-21T08:18:52;11.00;99.90
16174;DHT22;14031;50.158;8.626;2023-11-21T08:21:20;11.10;99.90
16174;DHT22;14031;50.158;8.626;2023-11-21T08:23:49;11.00;99.90
16174;DHT22;14031;50.158;8.626;2023-11-21T08:26:21;11.00;99.90
16174;DHT22;14031;50.158;8.626;2023-11-21T08:28:48;10.90;99.90
16174;DHT22;14031;50.158;8.626;2023-11-21T08:31:14;11.10;99.90
16174;DHT22;14031;50.158;8.626;2023-11-21T08:33:41;11.10;99.90
16174;DHT22;14031;50.158;8.626;2023-11-21T08:36:09;10.90;99.90
16174;DHT22;14031;50.158;8.626;2023-11-21T08:38:36;11.00;99.90
16174;DHT22;14031;50.158;8.626;2023-11-21T08:41:05;11.00;99.90
16174;DHT22;14031;50.158;8.626;2023-11-21T08:43:34;11.00;99.90
16174;DHT22;14031;50.158;8.626;2023-11-21T08:46:01;11.00;99.90
16174;DHT22;14031;50.158;8.626;2023-11-21T08:48:28;11.10;99.90
16174;DHT22;14031;50.158;8.626;2023-11-21T08:50:55;11.10;99.90
16174;DHT22;14031;50.158;8.626;2023-11-21T08:53:22;11.10;99.90
16174;DHT22;14031;50.158;8.626;2023-11-21T08:55:49;11.20;99.90
16174;DHT22;14031;50.158;8.626;2023-11-21T08:58:15;11.20;99.90
16174;DHT22;14031;50.158;8.626;2023-11-21T09:00:44;11.30;99.90
16174;DHT22;14031;50.158;8.626;2023-11-21T09:03:12;11.40;99.90
16174;DHT22;14031;50.158;8.626;2023-11-21T09:05:39;11.40;99.90
16174;DHT22;14031;50.158;8.626;2023-11-21T09:08:06;11.40;99.90
16174;DHT22;14031;50.158;8.626;2023-11-21T09:10:33;11.40;99.90
16174;DHT22;14031;50.158;8.626;2023-11-21T09:13:01;11.30;99.90
16174;DHT22;14031;50.158;8.626;2023-11-21T09:15:28;11.30;99.90
16174;DHT22;14031;50.158;8.626;2023-11-21T09:17:56;11.30;99.90
16174;DHT22;14031;50.158;8.626;2023-11-21T09:20:23;11.20;99.90
16174;DHT22;14031;50.158;8.626;2023-11-21T09:22:50;11.30;99.90
16174;DHT22;14031;50.158;8.626;2023-11-21T09:25:17;11.30;99.90
16174;DHT22;14031;50.158;8.626;2023-11-21T09:27:44;11.30;99.90
16174;DHT22;14031;50.158;8.626;2023-11-21T09:30:12;11.30;99.90
16174;DHT22;14031;50.158;8.626;2023-11-21T09:32:40;11.30;99.90
16174;DHT22;14031;50.158;8.626;2023-11-21T09:35:11;11.30;99.90
16174;DHT22;14031;50.158;8.626;2023-11-21T09:37:39;11.30;99.90
16174;DHT22;14031;50.158;8.626;2023-11-21T09:40:10;11.20;99.90
16174;DHT22;14031;50.158;8.626;2023-11-21T09:42:42;11.30;99.90
16174;DHT22;14031;50.158;8.626;2023-11-21T09:45:14;11.20;99.90
16174;DHT22;14031;50.158;8.626;2023-11-21T09:47:43;11.20;99.90
16174;DHT22;14031;50.158;8.626;2023-11-21T09:50:13;11.20;99.90
16174;DHT22;14031;50.158;8.626;2023-11-21T09:52:50;11.20;99.90
16174;DHT22;14031;50.158;8.626;2023-11-21T09:55:19;11.30;99.90
16174;DHT22;14031;50.158;8.626;2023-11-21T09:57:48;11.50;99.90
16174;DHT22;14031;50.158;8.626;2023-11-21T10:00:16;11.40;99.90
16174;DHT22;14031;50.158;8.626;2023-11-21T10:02:45;11.50;99.90
16174;DHT22;14031;50.158;8.626;2023-11-21T10:05:14;11.60;99.90
16174;DHT22;14031;50.158;8.626;2023-11-21T10:07:42;11.60;99.90
16174;DHT22;14031;50.158;8.626;2023-11-21T10:10:10;11.60;99.90
16174;DHT22;14031;50.158;8.626;2023-11-21T10:12:37;11.60;99.90
16174;DHT22;14031;50.158;8.626;2023-11-21T10:15:08;11.60;99.90
16174;DHT22;14031;50.158;8.626;2023-11-21T10:17:38;11.70;99.90
16174;DHT22;14031;50.158;8.626;2023-11-21T10:20:10;11.80;99.90
16174;DHT22;14031;50.158;8.626;2023-11-21T10:22:40;11.90;99.90
16174;DHT22;14031;50.158;8.626;2023-11-21T10:25:08;12.00;99.90
16174;DHT22;14031;50.158;8.626;2023-11-21T10:27:57;12.00;99.90
16174;DHT22;14031;50.158;8.626;2023-11-21T10:30:28;12.20;99.90
16174;DHT22;14031;50.158;8.626;2023-11-21T10:32:58;12.20;99.90
16174;DHT22;14031;50.158;8.626;2023-11-21T10:35:38;12.30;99.90
16174;DHT22;14031;50.158;8.626;2023-11-21T10:38:06;12.30;99.90
16174;DHT22;14031;50.158;8.626;2023-11-21T10:40:37;12.40;99.90
16174;DHT22;14031;50.158;8.626;2023-11-21T10:43:07;12.40;99.90
16174;DHT22;14031;50.158;8.626;2023-11-21T10:45:36;12.40;99.90
16174;DHT22;14031;50.158;8.626;2023-11-21T10:48:05;12.40;99.90
16174;DHT22;14031;50.158;8.626;2023-11-21T10:50:33;12.40;99.90
16174;DHT22;14031;50.158;8.626;2023-11-21T10:53:01;12.40;99.90
16174;DHT22;14031;50.158;8.626;2023-11-21T10:55:29;12.40;99.90
16174;DHT22;14031;50.158;8.626;2023-11-21T10:57:58;12.40;99.90
16174;DHT22;14031;50.158;8.626;2023-11-21T11:00:27;12.50;99.90
16174;DHT22;14031;50.158;8.626;2023-11-21T11:02:54;12.50;99.90
16174;DHT22;14031;50.158;8.626;2023-11-21T11:05:23;12.60;99.90
16174;DHT22;14031;50.158;8.626;2023-11-21T11:07:58;12.70;99.90
16174;DHT22;14031;50.158;8.626;2023-11-21T11:10:26;12.70;99.90
16174;DHT22;14031;50.158;8.626;2023-11-21T11:12:55;12.80;99.90
16174;DHT22;14031;50.158;8.626;2023-11-21T11:15:23;12.90;99.90
16174;DHT22;14031;50.158;8.626;2023-11-21T11:17:52;12.90;99.90
16174;DHT22;14031;50.158;8.626;2023-11-21T11:20:23;13.00;99.90
16174;DHT22;14031;50.158;8.626;2023-11-21T11:23:27;13.00;99.90
16174;DHT22;14031;50.158;8.626;2023-11-21T11:26:08;13.10;99.90
16174;DHT22;14031;50.158;8.626;2023-11-21T11:28:44;13.20;99.90
16174;DHT22;14031;50.158;8.626;2023-11-21T11:31:25;13.20;99.90
16174;DHT22;14031;50.158;8.626;2023-11-21T11:33:58;13.30;99.90
16174;DHT22;14031;50.158;8.626;2023-11-21T11:36:29;13.40;99.90
16174;DHT22;14031;50.158;8.626;2023-11-21T11:38:57;13.40;99.90
16174;DHT22;14031;50.158;8.626;2023-11-21T11:41:25;13.40;99.90
16174;DHT22;14031;50.158;8.626;2023-11-21T11:43:53;13.50;99.90
16174;DHT22;14031;50.158;8.626;2023-11-21T11:46:19;13.50;99.90
16174;DHT22;14031;50.158;8.626;2023-11-21T11:48:48;13.40;99.90
16174;DHT22;14031;50.158;8.626;2023-11-21T11:51:30;13.40;99.90
16174;DHT22;14031;50.158;8.626;2023-11-21T11:53:57;13.40;99.90
16174;DHT22;14031;50.158;8.626;2023-11-21T11:56:26;13.40;99.90
16174;DHT22;14031;50.158;8.626;2023-11-21T11:58:54;13.50;99.90
16174;DHT22;14031;50.158;8.626;2023-11-21T12:01:22;13.60;99.90
16174;DHT22;14031;50.158;8.626;2023-11-21T12:04:24;13.60;99.90
16174;DHT22;14031;50.158;8.626;2023-11-21T12:07:00;13.60;99.90
16174;DHT22;14031;50.158;8.626;2023-11-21T12:09:28;13.70;99.90
16174;DHT22;14031;50.158;8.626;2023-11-21T12:11:55;13.70;99.90
16174;DHT22;14031;50.158;8.626;2023-11-21T12:14:22;13.70;99.90
16174;DHT22;14031;50.158;8.626;2023-11-21T12:16:49;13.70;99.90
16174;DHT22;14031;50.158;8.626;2023-11-21T12:19:17;13.70;99.90
16174;DHT22;14031;50.158;8.626;2023-11-21T12:21:45;13.60;99.90
16174;DHT22;14031;50.158;8.626;2023-11-21T12:24:15;13.60;99.90
16174;DHT22;14031;50.158;8.626;2023-11-21T12:26:43;13.60;99.90
16174;DHT22;14031;50.158;8.626;2023-11-21T12:29:10;13.50;99.90
16174;DHT22;14031;50.158;8.626;2023-11-21T12:31:37;13.60;99.90
16174;DHT22;14031;50.158;8.626;2023-11-21T12:34:04;13.60;99.90
16174;DHT22;14031;50.158;8.626;2023-11-21T12:36:32;13.60;99.90
16174;DHT22;14031;50.158;8.626;2023-11-21T12:39:00;13.50;99.90
16174;DHT22;14031;50.158;8.626;2023-11-21T12:41:29;13.40;99.90
16174;DHT22;14031;50.158;8.626;2023-11-21T12:43:57;13.50;99.90
16174;DHT22;14031;50.158;8.626;2023-11-21T12:46:24;13.50;99.90
16174;DHT22;14031;50.158;8.626;2023-11-21T12:48:54;13.40;99.90
16174;DHT22;14031;50.158;8.626;2023-11-21T12:51:22;13.30;99.90
16174;DHT22;14031;50.158;8.626;2023-11-21T12:53:51;13.20;99.90
16174;DHT22;14031;50.158;8.626;2023-11-21T12:56:21;13.10;99.90
16174;DHT22;14031;50.158;8.626;2023-11-21T12:58:53;13.10;99.90
16174;DHT22;14031;50.158;8.626;2023-11-21T13:01:25;13.10;99.90
16174;DHT22;14031;50.158;8.626;2023-11-21T13:03:53;13.00;99.90
16174;DHT22;14031;50.158;8.626;2023-11-21T13:06:20;13.00;99.90
16174;DHT22;14031;50.158;8.626;2023-11-21T13:08:50;12.90;99.90
16174;DHT22;14031;50.158;8.626;2023-11-21T13:11:17;12.90;99.90
16174;DHT22;14031;50.158;8.626;2023-11-21T13:13:44;12.90;99.90
16174;DHT22;14031;50.158;8.626;2023-11-21T13:16:12;12.90;99.90
16174;DHT22;14031;50.158;8.626;2023-11-21T13:18:40;12.90;99.90
16174;DHT22;14031;50.158;8.626;2023-11-21T13:21:08;12.90;99.90
16174;DHT22;14031;50.158;8.626;2023-11-21T13:23:36;13.00;99.90
16174;DHT22;14031;50.158;8.626;2023-11-21T13:26:04;13.00;99.90
16174;DHT22;14031;50.158;8.626;2023-11-21T13:28:31;13.00;99.90
16174;DHT22;14031;50.158;8.626;2023-11-21T13:30:58;13.00;99.90
16174;DHT22;14031;50.158;8.626;2023-11-21T13:33:29;13.00;99.90
16174;DHT22;14031;50.158;8.626;2023-11-21T13:35:58;13.00;99.90
16174;DHT22;14031;50.158;8.626;2023-11-21T13:38:27;13.00;99.90
16174;DHT22;14031;50.158;8.626;2023-11-21T13:40:58;13.00;99.90
16174;DHT22;14031;50.158;8.626;2023-11-21T13:43:25;12.90;99.90
16174;DHT22;14031;50.158;8.626;2023-11-21T13:45:54;12.90;99.90
16174;DHT22;14031;50.158;8.626;2023-11-21T13:48:26;12.90;99.90
16174;DHT22;14031;50.158;8.626;2023-11-21T13:51:01;12.80;99.90
16174;DHT22;14031;50.158;8.626;2023-11-21T13:53:33;12.80;99.90
16174;DHT22;14031;50.158;8.626;2023-11-21T13:56:03;12.80;99.90
16174;DHT22;14031;50.158;8.626;2023-11-21T13:58:30;12.70;99.90
16174;DHT22;14031;50.158;8.626;2023-11-21T14:01:07;12.70;99.90
16174;DHT22;14031;50.158;8.626;2023-11-21T14:03:42;12.60;99.90
16174;DHT22;14031;50.158;8.626;2023-11-21T14:06:18;12.60;99.90
16174;DHT22;14031;50.158;8.626;2023-11-21T14:08:50;12.50;99.90
16174;DHT22;14031;50.158;8.626;2023-11-21T14:11:18;12.50;99.90
16174;DHT22;14031;50.158;8.626;2023-11-21T14:13:47;12.50;99.90
16174;DHT22;14031;50.158;8.626;2023-11-21T14:16:15;12.40;99.90
16174;DHT22;14031;50.158;8.626;2023-11-21T14:18:42;12.40;99.90
16174;DHT22;14031;50.158;8.626;2023-11-21T14:21:19;12.30;99.90
16174;DHT22;14031;50.158;8.626;2023-11-21T14:23:47;12.30;99.90
16174;DHT22;14031;50.158;8.626;2023-11-21T14:26:13;12.20;99.90
16174;DHT22;14031;50.158;8.626;2023-11-21T14:28:41;12.10;99.90
16174;DHT22;14031;50.158;8.626;2023-11-21T14:31:08;12.10;99.90
16174;DHT22;14031;50.158;8.626;2023-11-21T14:33:38;12.10;99.90
16174;DHT22;14031;50.158;8.626;2023-11-21T14:36:06;12.10;99.90
16174;DHT22;14031;50.158;8.626;2023-11-21T14:38:37;12.10;99.90
16174;DHT22;14031;50.158;8.626;2023-11-21T14:41:05;12.00;99.90
16174;DHT22;14031;50.158;8.626;2023-11-21T14:43:33;12.00;99.90
16174;DHT22;14031;50.158;8.626;2023-11-21T14:46:00;11.90;99.90
16174;DHT22;14031;50.158;8.626;2023-11-21T14:48:29;12.00;99.90
16174;DHT22;14031;50.158;8.626;2023-11-21T14:51:08;11.90;99.90
16174;DHT22;14031;50.158;8.626;2023-11-21T14:53:58;11.90;99.90
16174;DHT22;14031;50.158;8.626;2023-11-21T14:56:31;11.90;99.90
16174;DHT22;14031;50.158;8.626;2023-11-21T14:59:00;11.90;99.90
16174;DHT22;14031;50.158;8.626;2023-11-21T15:01:31;11.90;99.90
16174;DHT22;14031;50.158;8.626;2023-11-21T15:04:10;11.90;99.90
16174;DHT22;14031;50.158;8.626;2023-11-21T15:06:46;11.90;99.90
16174;DHT22;14031;50.158;8.626;2023-11-21T15:09:15;11.90;99.90
16174;DHT22;14031;50.158;8.626;2023-11-21T15:12:02;11.80;99.90
16174;DHT22;14031;50.158;8.626;2023-11-21T15:14:43;11.80;99.90
16174;DHT22;14031;50.158;8.626;2023-11-21T15:17:11;11.80;99.90
16174;DHT22;14031;50.158;8.626;2023-11-21T15:19:41;11.80;99.90
16174;DHT22;14031;50.158;8.626;2023-11-21T15:22:09;11.80;99.90
16174;DHT22;14031;50.158;8.626;2023-11-21T15:24:40;11.80;99.90
16174;DHT22;14031;50.158;8.626;2023-11-21T15:27:07;11.70;99.90
16174;DHT22;14031;50.158;8.626;2023-11-21T15:29:34;11.70;99.90
16174;DHT22;14031;50.158;8.626;2023-11-21T15:32:00;11.70;99.90
16174;DHT22;14031;50.158;8.626;2023-11-21T15:34:27;11.70;99.90
16174;DHT22;14031;50.158;8.626;2023-11-21T15:36:56;11.70;99.90
16174;DHT22;14031;50.158;8.626;2023-11-21T15:39:23;11.60;99.90